Time;durP1;ratioP1;P1;durP2;ratioP2;P2;SDS_P1;SDS_P2;PMS_P1;PMS_P2;Temp;Humidity;BMP_temperature;BMP_pressure;BME280_temperature;BME280_humidity;BME280_pressure;Samples;Min_cycle;Max_cycle;Signal;HPM_P1;HPM_P2
2022/09/24 00:01:37;;;;;;;9.43;5.90;;;;;;;7.54;83.58;100593.65;1699269;84;21133;-80
2022/09/24 00:04:10;;;;;;;10.17;6.57;;;;;;;7.52;83.61;100591.96;1699494;84;21013;-80
2022/09/24 00:06:43;;;;;;;9.07;6.10;;;;;;;7.47;83.55;100593.80;1699302;84;21029;-80
2022/09/24 00:09:14;;;;;;;10.70;6.83;;;;;;;7.42;83.62;100591.73;1699307;84;21013;-80
2022/09/24 00:11:45;;;;;;;9.47;6.60;;;;;;;7.36;83.46;100587.50;1679645;84;21044;-80
2022/09/24 00:14:12;;;;;;;11.70;6.63;;;;;;;7.31;83.58;100585.44;1699525;84;21193;-80
2022/09/24 00:16:41;;;;;;;9.83;6.33;;;;;;;7.27;83.60;100592.92;1699152;84;21036;-80
2022/09/24 00:19:09;;;;;;;11.20;6.87;;;;;;;7.24;83.77;100587.77;1699433;84;21021;-80
2022/09/24 00:21:37;;;;;;;10.17;6.47;;;;;;;7.20;83.85;100580.44;1699251;84;21049;-80
2022/09/24 00:27:01;;;;;;;9.73;6.40;;;;;;;7.14;83.90;100571.44;1699166;84;21157;-80
2022/09/24 00:29:30;;;;;;;10.53;7.08;;;;;;;7.10;84.04;100578.92;1699566;84;22140;-79
2022/09/24 00:31:57;;;;;;;11.47;7.27;;;;;;;7.08;84.18;100571.12;1699215;84;21531;-80
2022/09/24 00:34:24;;;;;;;9.07;6.67;;;;;;;7.05;84.25;100567.73;1723923;83;21028;-80
2022/09/24 00:36:52;;;;;;;11.37;7.63;;;;;;;7.05;84.36;100566.42;1724365;83;21020;-80
2022/09/24 00:39:19;;;;;;;9.93;6.90;;;;;;;7.03;84.45;100573.41;1724195;83;22085;-80
2022/09/24 00:41:47;;;;;;;12.97;7.60;;;;;;;7.00;84.46;100566.50;1724020;83;21463;-80
2022/09/24 00:44:46;;;;;;;11.73;7.77;;;;;;;6.99;84.54;100568.70;1724233;82;21009;-79
2022/09/24 00:47:41;;;;;;;12.87;6.97;;;;;;;6.99;84.59;100565.25;1724542;83;21027;-80
2022/09/24 00:50:32;;;;;;;11.30;7.67;;;;;;;6.98;84.69;100564.81;1722287;83;21486;-80
2022/09/24 00:53:01;;;;;;;;;;;;;;;6.96;84.66;100560.09;1697588;83;21593;-80
2022/09/24 00:55:30;;;;;;;12.20;7.33;;;;;;;6.90;84.78;100552.81;1700326;83;20327;-80
2022/09/24 00:58:02;;;;;;;10.67;7.30;;;;;;;6.88;84.67;100553.28;1720451;82;21331;-80
2022/09/24 01:00:30;;;;;;;11.07;7.43;;;;;;;6.85;84.74;100554.64;1699649;84;21029;-80
2022/09/24 01:03:08;;;;;;;9.43;6.67;;;;;;;6.85;84.79;100553.79;1729403;82;21014;-80
2022/09/24 01:05:37;;;;;;;13.90;7.97;;;;;;;6.83;84.83;100554.25;1715074;82;22030;-80
2022/09/24 01:08:08;;;;;;;9.80;7.00;;;;;;;6.81;84.77;100554.27;1699762;84;22061;-80
2022/09/24 01:11:04;;;;;;;11.30;6.40;;;;;;;6.80;84.77;100551.71;1718366;82;21022;-80
2022/09/24 01:13:50;;;;;;;14.10;7.57;;;;;;;6.77;84.87;100550.02;1731887;82;21003;-80
2022/09/24 01:16:25;;;;;;;11.27;6.63;;;;;;;6.79;85.02;100544.34;1732077;82;21018;-80
2022/09/24 01:19:34;;;;;;;8.63;6.43;;;;;;;6.78;85.01;100544.36;1730176;82;21951;-80
2022/09/24 01:22:07;;;;;;;11.17;6.83;;;;;;;6.76;85.15;100536.59;1658758;86;21132;-80
2022/09/24 01:25:03;;;;;;;9.00;6.50;;;;;;;6.75;85.18;100545.27;1717173;82;21030;-80
2022/09/24 01:27:51;;;;;;;10.43;7.47;;;;;;;6.77;85.37;100540.05;1699560;82;20979;-80
2022/09/24 01:30:19;;;;;;;11.57;7.30;;;;;;;6.80;85.52;100537.38;1662161;84;21564;-80
2022/09/24 01:32:56;;;;;;;11.40;7.50;;;;;;;6.86;85.80;100528.98;1717512;82;21313;-80
2022/09/24 01:35:35;;;;;;;10.23;7.00;;;;;;;6.92;85.99;100532.77;1726178;83;21060;-80
2022/09/24 01:38:08;;;;;;;9.90;7.00;;;;;;;6.98;86.08;100529.63;1726321;82;21001;-79
2022/09/24 01:40:38;;;;;;;11.57;7.77;;;;;;;7.03;86.13;100527.80;1726319;82;21071;-80
2022/09/24 01:43:09;;;;;;;13.78;8.13;;;;;;;7.11;86.22;100526.75;1726473;83;21024;-80
2022/09/24 01:45:38;;;;;;;13.17;8.17;;;;;;;7.11;86.22;100526.75;1726362;83;21112;-80
2022/09/24 01:48:07;;;;;;;15.07;8.63;;;;;;;7.20;86.32;100522.23;1726386;82;21056;-80
2022/09/24 01:51:01;;;;;;;13.57;8.73;;;;;;;7.29;86.40;100520.75;1726199;83;21019;-81
2022/09/24 01:53:33;;;;;;;13.17;9.27;;;;;;;7.36;86.38;100523.17;1725911;81;20967;-80
2022/09/24 01:56:22;;;;;;;16.27;9.73;;;;;;;7.44;86.61;100521.70;1726336;82;21279;-80
2022/09/24 01:58:54;;;;;;;14.23;9.27;;;;;;;7.54;86.67;100518.00;1726476;83;21781;-80
2022/09/24 02:01:36;;;;;;;15.30;9.90;;;;;;;7.63;86.51;100513.02;1706536;83;21004;-80
2022/09/24 02:04:07;;;;;;;15.73;10.07;;;;;;;7.68;86.46;100512.92;1726377;82;21513;-80
2022/09/24 02:06:40;;;;;;;14.63;9.07;;;;;;;7.73;86.39;100511.04;1726295;82;21067;-80
2022/09/24 02:09:35;;;;;;;15.07;9.83;;;;;;;7.77;86.23;100511.39;1726261;82;21012;-80
2022/09/24 02:12:22;;;;;;;16.20;9.50;;;;;;;7.77;86.19;100514.00;1726400;82;21182;-80
2022/09/24 02:15:16;;;;;;;14.83;9.77;;;;;;;7.80;86.11;100505.65;1704139;83;21020;-85
2022/09/24 02:17:47;;;;;;;12.50;8.87;;;;;;;7.85;85.97;100505.55;1724818;83;21063;-80
2022/09/24 02:20:20;;;;;;;14.73;9.80;;;;;;;7.81;85.71;100507.38;1726221;83;21488;-80
2022/09/24 02:22:50;;;;;;;14.43;9.80;;;;;;;7.80;85.72;100509.56;1726473;83;21000;-80
2022/09/24 02:25:25;;;;;;;16.40;10.15;;;;;;;7.79;85.83;100500.03;1726410;82;21128;-80
2022/09/24 02:27:52;;;;;;;16.43;9.70;;;;;;;7.82;85.84;100503.87;1719622;83;20993;-80
2022/09/24 02:30:19;;;;;;;13.73;9.03;;;;;;;7.86;85.88;100503.79;1726269;83;21004;-80
2022/09/24 02:32:48;;;;;;;13.17;9.27;;;;;;;7.80;85.43;100503.03;1726319;82;21004;-80
2022/09/24 02:35:16;;;;;;;13.90;9.33;;;;;;;7.73;85.08;100494.08;1711333;82;21015;-80
2022/09/24 02:37:43;;;;;;;14.63;9.03;;;;;;;7.65;85.03;100490.80;1731996;81;21935;-80
2022/09/24 02:40:13;;;;;;;14.20;9.50;;;;;;;7.59;85.06;100490.48;1731552;82;21019;-80
2022/09/24 02:42:42;;;;;;;13.53;9.63;;;;;;;7.54;85.11;100497.14;1732043;82;20992;-80
2022/09/24 02:45:11;;;;;;;15.10;9.57;;;;;;;7.50;85.40;100493.33;1731650;82;21017;-80
2022/09/24 02:47:38;;;;;;;15.10;9.50;;;;;;;7.46;85.24;100492.55;1732019;82;20996;-80
2022/09/24 02:50:06;;;;;;;13.47;9.70;;;;;;;7.43;85.44;100490.01;1731767;82;21082;-80
2022/09/24 02:52:34;;;;;;;14.97;9.93;;;;;;;7.40;85.44;100492.69;1708875;82;21031;-80
2022/09/24 02:55:01;;;;;;;15.13;9.60;;;;;;;7.37;85.53;100492.31;1722516;82;21016;-80
2022/09/24 02:57:28;;;;;;;13.73;9.83;;;;;;;7.33;85.51;100494.56;1731888;82;21040;-80
2022/09/24 02:59:55;;;;;;;15.00;9.73;;;;;;;7.29;85.55;100490.77;1718320;82;21023;-80
2022/09/24 03:02:22;;;;;;;14.60;10.03;;;;;;;7.27;85.62;100498.61;1725102;82;21234;-80
2022/09/24 03:04:48;;;;;;;15.77;10.27;;;;;;;7.22;85.57;100490.02;1731667;82;21254;-80
2022/09/24 03:07:16;;;;;;;14.87;9.37;;;;;;;7.20;85.72;100488.34;1732155;82;21004;-80
2022/09/24 03:09:43;;;;;;;17.13;10.57;;;;;;;7.19;85.82;100490.55;1731674;82;21486;-80
2022/09/24 03:12:13;;;;;;;16.93;10.97;;;;;;;7.25;86.44;100489.10;1731784;82;20988;-80
2022/09/24 03:14:40;;;;;;;13.38;9.88;;;;;;;7.33;86.83;100487.19;1732150;82;21255;-80
2022/09/24 03:17:07;;;;;;;13.20;9.37;;;;;;;7.37;86.56;100480.58;1731707;82;21016;-81
2022/09/24 03:19:34;;;;;;;17.23;10.03;;;;;;;7.33;86.05;100485.43;1731997;82;21023;-82
2022/09/24 03:22:01;;;;;;;13.63;9.87;;;;;;;7.30;86.05;100476.83;1732034;82;21032;-81
2022/09/24 03:24:29;;;;;;;15.07;10.17;;;;;;;7.24;85.80;100473.91;1731680;82;21012;-81
2022/09/24 03:26:56;;;;;;;17.60;10.67;;;;;;;7.23;85.99;100473.93;1731687;82;21110;-82
2022/09/24 03:30:58;;;;;;;14.77;10.50;;;;;;;7.21;86.21;100468.77;1731714;82;21513;-82
2022/09/24 03:31:52;;;;;;;17.30;11.13;;;;;;;7.24;86.46;100467.84;1712611;82;21466;-82
2022/09/24 03:34:19;;;;;;;15.30;10.77;;;;;;;7.28;86.70;100466.42;1731651;82;21545;-81
2022/09/24 03:36:46;;;;;;;16.07;10.97;;;;;;;7.32;86.75;100469.84;1731733;81;21493;-82
2022/09/24 03:39:13;;;;;;;19.10;11.43;;;;;;;7.33;86.68;100467.63;1713211;82;21306;-81
2022/09/24 03:41:40;;;;;;;16.07;11.37;;;;;;;7.35;86.81;100463.25;1718060;82;21529;-82
2022/09/24 03:44:07;;;;;;;17.57;10.80;;;;;;;7.37;86.86;100460.13;1731842;82;21047;-81
2022/09/24 03:46:35;;;;;;;18.50;11.57;;;;;;;7.42;87.07;100463.50;1731959;82;20996;-82
2022/09/24 03:49:01;;;;;;;17.37;11.73;;;;;;;7.46;87.08;100458.64;1731782;82;21004;-81
2022/09/24 03:51:28;;;;;;;17.87;11.60;;;;;;;7.50;87.04;100462.88;1731911;82;21123;-82
2022/09/24 03:53:55;;;;;;;16.70;11.30;;;;;;;7.55;87.02;100461.47;1732099;82;21000;-82
2022/09/24 03:56:23;;;;;;;17.20;11.63;;;;;;;7.57;86.90;100458.39;1731719;82;21016;-81
2022/09/24 03:58:50;;;;;;;17.17;11.63;;;;;;;7.58;86.96;100456.18;1731809;82;21008;-82
2022/09/24 04:01:20;;;;;;;16.70;11.73;;;;;;;7.60;86.87;100459.17;1712035;82;21595;-81
2022/09/24 04:03:48;;;;;;;;;;;;;;;7.63;87.04;100458.23;1734732;82;21047;-82
2022/09/24 04:06:15;;;;;;;18.23;10.87;;;;;;;7.67;87.16;100450.73;1731838;82;20162;-81
2022/09/24 04:08:42;;;;;;;16.50;11.47;;;;;;;7.68;86.97;100448.55;1731891;82;21490;-81
2022/09/24 04:11:09;;;;;;;16.97;11.93;;;;;;;7.69;86.82;100458.08;1731734;82;21067;-81
2022/09/24 04:13:36;;;;;;;18.43;12.47;;;;;;;7.73;86.91;100454.94;1717874;81;21016;-80
2022/09/24 04:16:04;;;;;;;19.77;11.63;;;;;;;7.72;86.76;100451.48;1704699;81;21131;-86
2022/09/24 04:18:31;;;;;;;19.10;12.67;;;;;;;7.72;86.85;100451.48;1718913;82;21023;-82
2022/09/24 04:20:59;;;;;;;21.10;13.00;;;;;;;7.74;86.77;100450.16;1718840;82;21028;-81
2022/09/24 04:23:26;;;;;;;17.13;11.97;;;;;;;7.75;86.81;100446.19;1712559;82;21031;-80
2022/09/24 04:25:53;;;;;;;15.73;11.57;;;;;;;7.77;86.77;100447.47;1715060;82;21544;-80
2022/09/24 04:28:20;;;;;;;18.13;13.00;;;;;;;7.79;86.88;100443.93;1713612;81;21127;-81
2022/09/24 04:30:47;;;;;;;16.90;12.30;;;;;;;7.80;86.82;100442.17;1719097;82;21031;-81
2022/09/24 04:33:14;;;;;;;17.07;11.37;;;;;;;7.80;86.78;100440.86;1719713;82;21034;-81
2022/09/24 04:35:41;;;;;;;17.83;11.80;;;;;;;7.83;86.87;100439.03;1715349;82;21039;-81
2022/09/24 04:38:10;;;;;;;17.07;11.97;;;;;;;7.87;86.81;100441.55;1719384;82;21043;-81
2022/09/24 04:40:38;;;;;;;17.10;11.83;;;;;;;7.87;86.78;100444.16;1709776;82;22063;-81
2022/09/24 04:43:06;;;;;;;18.80;12.70;;;;;;;7.88;86.74;100441.98;1720160;82;21031;-81
2022/09/24 04:45:33;;;;;;;16.10;11.50;;;;;;;7.87;86.60;100443.74;1710987;82;21023;-81
2022/09/24 04:48:01;;;;;;;17.43;12.00;;;;;;;7.85;86.43;100436.39;1708508;82;21054;-81
2022/09/24 04:50:33;;;;;;;17.73;12.47;;;;;;;7.85;86.48;100436.84;1724312;82;21082;-81
2022/09/24 04:53:01;;;;;;;17.43;12.23;;;;;;;7.86;86.52;100438.55;1705149;82;21309;-81
2022/09/24 04:55:28;;;;;;;18.40;11.97;;;;;;;7.88;86.72;100436.31;1722841;82;21034;-81
2022/09/24 04:57:57;;;;;;;19.00;11.93;;;;;;;7.90;86.65;100433.64;1706634;82;21043;-81
2022/09/24 05:00:24;;;;;;;17.03;12.13;;;;;;;7.88;86.43;100438.07;1716781;82;21044;-81
2022/09/24 05:02:58;;;;;;;14.40;11.17;;;;;;;7.87;86.52;100433.30;1714063;82;21047;-81
2022/09/24 05:05:27;;;;;;;17.23;12.23;;;;;;;7.86;86.53;100434.18;1720600;82;22170;-81
2022/09/24 05:07:55;;;;;;;16.30;12.13;;;;;;;7.87;86.62;100432.42;1726368;81;21563;-81
2022/09/24 05:10:25;;;;;;;17.83;11.90;;;;;;;7.88;86.59;100433.70;1716184;82;20951;-81
2022/09/24 05:12:53;;;;;;;19.85;12.40;;;;;;;7.87;86.54;100430.70;1713562;82;21050;-82
2022/09/24 05:15:20;;;;;;;17.37;11.37;;;;;;;7.88;86.43;100436.77;1717086;82;21023;-82
2022/09/24 05:17:48;;;;;;;18.17;11.80;;;;;;;7.85;86.44;100427.26;1715748;82;21192;-81
2022/09/24 05:20:20;;;;;;;16.80;12.93;;;;;;;7.87;86.50;100432.00;1714131;82;21453;-81
2022/09/24 05:22:46;;;;;;;15.73;11.97;;;;;;;7.87;86.52;100432.00;1711526;82;21035;-81
2022/09/24 05:25:15;;;;;;;16.27;12.13;;;;;;;7.87;86.40;100425.48;1713533;81;21043;-81
2022/09/24 05:27:50;;;;;;;17.20;12.13;;;;;;;7.83;86.29;100423.37;1719280;82;21023;-81
2022/09/24 05:30:20;;;;;;;17.20;11.60;;;;;;;7.83;86.53;100424.67;1712602;81;22009;-82
2022/09/24 05:32:53;;;;;;;16.00;11.73;;;;;;;7.86;86.58;100421.13;1714552;82;21016;-81
2022/09/24 05:35:23;;;;;;;17.27;12.30;;;;;;;7.87;86.59;100425.48;1726333;81;20998;-83
2022/09/24 05:37:52;;;;;;;18.00;12.80;;;;;;;7.88;86.55;100425.88;1715575;82;21052;-85
2022/09/24 05:43:04;;;;;;;19.03;12.60;;;;;;;7.90;86.66;100426.70;1708210;82;21121;-84
2022/09/24 05:45:33;;;;;;;16.73;12.13;;;;;;;7.89;86.39;100433.25;1712338;82;21292;-83
2022/09/24 05:48:00;;;;;;;18.00;12.90;;;;;;;7.88;86.64;100421.11;1706525;81;21047;-82
2022/09/24 05:50:27;;;;;;;16.90;11.70;;;;;;;7.91;86.68;100424.48;1699944;82;21481;-84
2022/09/24 05:52:55;;;;;;;16.60;12.03;;;;;;;7.92;86.60;100423.58;1715498;81;21035;-80
2022/09/24 05:55:22;;;;;;;18.90;12.63;;;;;;;7.96;86.91;100428.30;1710127;82;21201;-88
2022/09/24 05:57:49;;;;;;;18.17;12.43;;;;;;;8.02;86.97;100427.67;1706183;82;21039;-82
2022/09/24 06:00:16;;;;;;;16.30;12.40;;;;;;;8.02;86.62;100427.67;1711044;82;21110;-78
2022/09/24 06:02:43;;;;;;;19.10;12.53;;;;;;;8.04;86.67;100429.80;1726908;82;21023;-84
2022/09/24 06:05:11;;;;;;;16.13;11.70;;;;;;;8.07;86.64;100433.24;1729219;82;21043;-84
2022/09/24 06:07:38;;;;;;;18.97;12.50;;;;;;;8.09;86.64;100433.58;1724676;82;21124;-85
2022/09/24 06:10:06;;;;;;;19.47;12.83;;;;;;;8.11;86.62;100439.63;1713120;82;21080;-84
2022/09/24 06:12:33;;;;;;;16.13;12.03;;;;;;;8.14;86.68;100439.54;1724894;82;21031;-84
2022/09/24 06:15:01;;;;;;;16.27;11.50;;;;;;;8.17;86.69;100439.45;1720655;82;22131;-81
2022/09/24 06:17:31;;;;;;;18.50;12.33;;;;;;;8.21;86.69;100442.86;1712868;82;21059;-82
2022/09/24 06:19:58;;;;;;;18.60;12.50;;;;;;;8.24;86.72;100438.41;1713171;82;21073;-82
2022/09/24 06:22:26;;;;;;;19.47;12.13;;;;;;;8.31;86.78;100439.55;1713602;82;21552;-85
2022/09/24 06:24:55;;;;;;;17.80;12.37;;;;;;;8.35;86.73;100439.89;1711012;82;21035;-83
2022/09/24 06:27:24;;;;;;;16.75;12.25;;;;;;;8.38;86.60;100442.41;1718854;82;28789;-82
2022/09/24 06:29:50;;;;;;;17.73;12.10;;;;;;;8.41;86.66;100440.59;1718299;82;21032;-81
2022/09/24 06:32:18;;;;;;;17.97;12.10;;;;;;;8.44;86.57;100440.51;1717801;81;21111;-82
2022/09/24 06:34:46;;;;;;;19.23;11.93;;;;;;;8.46;86.55;100440.02;1711341;82;21557;-82
2022/09/24 06:37:13;;;;;;;16.90;12.07;;;;;;;8.53;86.84;100435.92;1712010;82;21054;-83
2022/09/24 06:39:40;;;;;;;16.90;12.30;;;;;;;8.60;86.85;100439.64;1718034;82;21020;-81
2022/09/24 06:42:07;;;;;;;20.00;12.13;;;;;;;8.66;86.84;100435.99;1725221;82;21453;-82
2022/09/24 06:44:36;;;;;;;17.37;12.17;;;;;;;8.74;86.80;100436.63;1721354;81;21091;-82
2022/09/24 06:47:04;;;;;;;19.03;12.50;;;;;;;8.81;86.67;100437.30;1715227;82;21044;-81
2022/09/24 06:49:31;;;;;;;20.30;12.87;;;;;;;8.87;86.63;100439.30;1724225;81;21014;-81
2022/09/24 06:51:58;;;;;;;18.90;12.27;;;;;;;8.93;86.61;100436.95;1682115;83;21048;-85
2022/09/24 06:54:25;;;;;;;17.27;10.90;;;;;;;9.02;86.57;100435.81;1698397;83;21048;-81
2022/09/24 06:56:52;;;;;;;16.03;11.03;;;;;;;9.11;86.84;100438.14;1686705;83;21184;-81
2022/09/24 06:59:19;;;;;;;14.90;11.30;;;;;;;9.20;86.59;100437.00;1715786;81;21039;-83
2022/09/24 07:01:46;;;;;;;16.43;11.20;;;;;;;9.28;86.62;100431.94;1699803;84;21095;-87
2022/09/24 07:04:13;;;;;;;17.73;11.37;;;;;;;9.37;86.53;100434.28;1719303;82;21035;-89
2022/09/24 07:09:26;;;;;;;17.10;10.93;;;;;;;9.65;86.67;100441.71;1714651;82;22099;-86
2022/09/24 07:11:53;;;;;;;16.33;10.67;;;;;;;9.79;86.65;100440.80;1731560;82;21533;-82
2022/09/24 07:14:20;;;;;;;17.17;10.50;;;;;;;9.93;86.75;100442.95;1730595;82;21510;-84
2022/09/24 07:16:47;;;;;;;14.70;10.50;;;;;;;10.05;86.77;100439.45;1731910;82;20959;-82
2022/09/24 07:19:15;;;;;;;13.47;9.80;;;;;;;10.18;86.57;100442.52;1731736;82;21059;-86
2022/09/24 07:21:42;;;;;;;15.67;10.03;;;;;;;10.30;86.48;100443.03;1732307;82;21093;-82
2022/09/24 07:24:09;;;;;;;16.10;10.57;;;;;;;10.38;86.11;100447.08;1731892;82;21481;-84
2022/09/24 07:26:37;;;;;;;15.23;9.97;;;;;;;10.48;86.07;100451.55;1725591;82;21023;-81
2022/09/24 07:29:04;;;;;;;14.97;10.07;;;;;;;10.59;86.05;100447.24;1731855;82;21056;-81
2022/09/24 07:31:31;;;;;;;14.83;10.10;;;;;;;10.68;86.07;100445.59;1732258;82;21589;-81
2022/09/24 07:33:58;;;;;;;12.77;9.23;;;;;;;10.79;85.94;100451.75;1731927;82;21438;-81
2022/09/24 07:36:25;;;;;;;16.07;9.98;;;;;;;10.88;85.73;100454.87;1734042;82;21007;-81
2022/09/24 07:38:53;;;;;;;13.40;10.05;;;;;;;10.98;85.82;100461.09;1735065;82;21308;-81
2022/09/24 07:41:20;;;;;;;15.10;10.60;;;;;;;11.11;85.79;100464.94;1734721;82;20980;-86
2022/09/24 07:43:47;;;;;;;14.35;9.90;;;;;;;11.20;85.55;100465.92;1735116;82;21032;-81
2022/09/24 07:46:15;;;;;;;14.60;8.63;;;;;;;11.27;85.48;100460.81;1734742;82;21131;-85
2022/09/24 07:48:42;;;;;;;13.93;9.17;;;;;;;11.34;85.19;100468.02;1735013;82;21114;-87
2022/09/24 07:51:10;;;;;;;14.90;10.15;;;;;;;11.41;85.04;100467.30;1734801;82;21436;-82
2022/09/24 07:53:37;;;;;;;13.55;9.40;;;;;;;11.47;84.73;100473.15;1735130;82;21489;-82
2022/09/24 07:56:05;;;;;;;13.40;9.28;;;;;;;11.51;84.77;100470.81;1734740;82;21469;-82
2022/09/24 07:58:32;;;;;;;12.63;9.28;;;;;;;11.60;84.87;100480.09;1735024;82;21098;-87
2022/09/24 08:01:00;;;;;;;13.60;9.45;;;;;;;11.70;84.81;100479.28;1719989;82;21599;-81
2022/09/24 08:03:28;;;;;;;11.90;9.23;;;;;;;11.81;84.81;100474.45;1734979;82;21001;-81
2022/09/24 08:05:58;;;;;;;14.90;9.25;;;;;;;11.92;84.86;100473.58;1705173;84;21073;-82
2022/09/24 08:08:26;;;;;;;14.07;9.05;;;;;;;12.05;84.74;100475.22;1734768;82;21027;-82
2022/09/24 08:10:54;;;;;;;13.43;8.43;;;;;;;12.17;84.29;100473.87;1735036;82;21159;-81
2022/09/24 08:13:21;;;;;;;15.60;8.85;;;;;;;12.28;84.29;100472.48;1734839;82;21059;-82
2022/09/24 08:15:50;;;;;;;11.68;8.75;;;;;;;12.42;84.42;100467.09;1734986;82;21083;-86
2022/09/24 08:18:16;;;;;;;11.78;8.20;;;;;;;12.53;84.40;100460.05;1699710;82;21019;-81
2022/09/24 08:20:44;;;;;;;14.40;8.75;;;;;;;12.61;84.34;100455.28;1735048;82;21019;-81
2022/09/24 08:23:11;;;;;;;12.98;8.23;;;;;;;12.75;84.51;100455.55;1734716;82;21505;-81
2022/09/24 08:25:38;;;;;;;12.05;7.87;;;;;;;12.87;84.06;100455.44;1734901;82;21027;-82
2022/09/24 08:28:07;;;;;;;12.07;8.53;;;;;;;12.93;83.81;100450.73;1734641;82;21031;-82
2022/09/24 08:30:35;;;;;;;11.20;8.05;;;;;;;13.00;83.61;100454.39;1734918;82;21557;-87
2022/09/24 08:33:05;;;;;;;11.08;7.95;;;;;;;13.05;83.47;100446.71;1734742;82;21055;-82
2022/09/24 08:35:34;;;;;;;11.25;7.85;;;;;;;13.11;83.26;100454.78;1732985;80;21127;-88
2022/09/24 08:38:02;;;;;;;11.53;7.95;;;;;;;13.17;82.98;100451.39;1720419;81;26694;-81
2022/09/24 08:40:34;;;;;;;10.50;7.75;;;;;;;13.21;82.66;100448.14;1718656;82;21034;-83
2022/09/24 08:43:22;;;;;;;11.85;7.83;;;;;;;13.24;82.64;100442.73;1705348;82;21480;-84
2022/09/24 08:48:48;;;;;;;9.40;7.20;;;;;;;13.35;82.22;100444.88;1706113;82;21190;-84
2022/09/24 08:51:19;;;;;;;10.25;7.75;;;;;;;13.43;81.90;100449.79;1705288;82;20931;-84
2022/09/24 08:54:04;;;;;;;8.88;6.92;;;;;;;13.46;81.85;100441.73;1705804;82;21015;-84
2022/09/24 08:56:35;;;;;;;11.03;7.47;;;;;;;13.51;81.54;100442.38;1715474;82;21029;-83
2022/09/24 08:59:29;;;;;;;10.80;7.22;;;;;;;13.55;81.37;100439.97;1709838;82;21003;-83
2022/09/24 09:02:38;;;;;;;11.22;7.17;;;;;;;13.62;81.14;100440.07;1722549;82;21972;-81
2022/09/24 09:05:26;;;;;;;9.73;6.63;;;;;;;13.74;81.07;100438.14;1719501;82;21087;-82
2022/09/24 09:08:04;;;;;;;12.30;7.03;;;;;;;13.83;81.27;100432.43;1719417;82;21554;-85
2022/09/24 09:10:35;;;;;;;9.75;6.67;;;;;;;14.01;81.20;100439.02;1729464;82;21051;-83
2022/09/24 09:13:29;;;;;;;10.15;7.10;;;;;;;14.08;80.71;100439.10;1734889;82;21000;-84
2022/09/24 09:16:23;;;;;;;9.63;6.85;;;;;;;14.12;80.60;100434.52;1717050;82;21059;-84
2022/09/24 09:18:53;;;;;;;9.28;6.70;;;;;;;14.19;80.50;100442.48;1734596;82;20996;-82
2022/09/24 09:21:32;;;;;;;10.30;6.45;;;;;;;14.27;80.18;100446.89;1734993;82;21016;-84
2022/09/24 09:24:02;;;;;;;9.85;7.10;;;;;;;14.33;79.93;100443.09;1734539;82;20999;-85
2022/09/24 09:26:30;;;;;;;10.68;6.28;;;;;;;14.35;79.77;100436.80;1734685;82;21400;-84
2022/09/24 09:29:01;;;;;;;9.48;6.67;;;;;;;14.42;79.81;100436.04;1731477;82;21521;-84
2022/09/24 09:31:53;;;;;;;8.60;6.12;;;;;;;14.44;79.54;100431.55;1681938;82;21600;-84
2022/09/24 09:34:28;;;;;;;7.25;5.50;;;;;;;14.47;79.54;100426.95;1716012;82;21019;-83
2022/09/24 09:37:33;;;;;;;7.78;5.75;;;;;;;14.55;79.11;100425.70;1702060;82;21035;-83
2022/09/24 09:40:20;;;;;;;7.20;5.50;;;;;;;14.62;79.01;100430.58;1702883;83;21529;-83
2022/09/24 09:42:49;;;;;;;6.03;4.58;;;;;;;14.70;78.71;100428.39;1706763;83;21047;-83
2022/09/24 09:45:34;;;;;;;8.28;4.28;;;;;;;14.79;78.39;100429.67;1706784;83;21035;-83
2022/09/24 09:48:02;;;;;;;6.50;4.65;;;;;;;14.86;77.90;100427.10;1701850;82;21309;-82
2022/09/24 09:50:40;;;;;;;8.30;5.47;;;;;;;14.93;77.81;100430.24;1700295;83;21067;-81
2022/09/24 09:53:26;;;;;;;8.75;5.40;;;;;;;14.98;77.82;100429.53;1711531;83;21043;-81
2022/09/24 09:56:02;;;;;;;7.75;4.80;;;;;;;15.03;77.61;100434.56;1706758;83;21020;-81
2022/09/24 09:58:34;;;;;;;6.28;4.70;;;;;;;15.07;77.59;100432.12;1705248;83;21079;-82
2022/09/24 10:01:20;;;;;;;9.05;4.83;;;;;;;15.08;77.30;100430.73;1712278;81;21583;-82
2022/09/24 10:03:48;;;;;;;7.50;4.30;;;;;;;15.09;76.97;100435.55;1712352;82;21071;-81
2022/09/24 10:06:27;;;;;;;5.25;4.70;;;;;;;15.12;76.55;100443.29;1682349;83;21086;-81
2022/09/24 10:09:15;;;;;;;8.83;4.37;;;;;;;15.15;76.27;100440.00;1723935;83;21113;-83
2022/09/24 10:11:43;;;;;;;116.65;14.75;;;;;;;15.19;76.40;100444.67;1721516;83;21019;-82
2022/09/24 10:14:16;;;;;;;4.72;3.37;;;;;;;15.25;75.76;100440.83;1723784;81;21059;-82
2022/09/24 10:16:51;;;;;;;6.05;3.77;;;;;;;15.29;75.53;100442.34;1724057;83;21691;-82
2022/09/24 10:19:22;;;;;;;5.90;4.10;;;;;;;15.34;75.39;100438.98;1723416;82;21059;-82
2022/09/24 10:21:50;;;;;;;6.62;4.22;;;;;;;15.39;75.23;100443.07;1723812;83;21103;-80
2022/09/24 10:24:26;;;;;;;4.92;3.95;;;;;;;15.39;75.23;100443.07;1723919;82;21036;-81
2022/09/24 10:26:55;;;;;;;4.95;3.77;;;;;;;15.44;75.06;100442.83;1705218;83;21070;-80
2022/09/24 10:32:21;;;;;;;7.12;4.08;;;;;;;15.47;74.38;100436.05;1708017;83;21529;-80
2022/09/24 10:35:00;;;;;;;5.67;3.35;;;;;;;15.54;74.46;100441.34;1723622;83;22436;-80
2022/09/24 10:37:29;;;;;;;3.75;3.22;;;;;;;15.60;74.18;100435.73;1728307;82;21027;-82
2022/09/24 10:40:04;;;;;;;5.33;3.40;;;;;;;15.73;73.92;100432.40;1730906;82;21540;-83
2022/09/24 10:42:34;;;;;;;4.83;4.03;;;;;;;15.89;73.34;100432.37;1726388;81;21475;-82
2022/09/24 10:45:03;;;;;;;6.65;3.87;;;;;;;16.05;73.05;100426.56;1729126;82;21035;-83
2022/09/24 10:48:00;;;;;;;5.45;3.35;;;;;;;16.21;71.98;100431.31;1698885;82;21027;-84
2022/09/24 10:50:42;;;;;;;4.60;3.50;;;;;;;16.32;71.95;100428.00;1732158;82;21051;-85
2022/09/24 10:53:26;;;;;;;6.30;3.50;;;;;;;16.51;71.42;100419.31;1701621;82;21015;-85
2022/09/24 10:56:14;;;;;;;5.08;3.12;;;;;;;16.71;71.29;100426.05;1731961;82;21063;-87
2022/09/24 10:59:20;;;;;;;3.77;2.83;;;;;;;16.92;70.82;100425.67;1731743;82;21526;-88
2022/09/24 11:01:59;;;;;;;3.45;2.58;;;;;;;17.13;70.00;100419.02;1702570;82;21956;-92
2022/09/24 11:04:52;;;;;;;3.87;2.67;;;;;;;17.37;69.13;100423.67;1729062;82;20995;-91
2022/09/24 11:07:44;;;;;;;4.42;2.98;;;;;;;17.56;68.88;100422.84;1713991;81;21045;-90
2022/09/24 11:10:41;;;;;;;3.35;2.50;;;;;;;17.82;68.20;100421.16;1708355;81;21031;-84
2022/09/24 11:13:39;;;;;;;3.65;2.37;;;;;;;18.00;67.80;100422.20;1705551;82;21004;-89
2022/09/24 11:16:37;;;;;;;4.60;2.60;;;;;;;18.17;66.99;100414.41;1702581;82;21106;-87
2022/09/24 11:19:46;;;;;;;6.10;2.22;;;;;;;18.31;66.01;100419.61;1701743;82;20977;-92
2022/09/24 11:22:18;;;;;;;3.50;1.87;;;;;;;18.40;66.00;100420.33;1701619;82;21027;-86
2022/09/24 11:25:12;;;;;;;2.77;1.90;;;;;;;18.47;64.65;100420.73;1701997;82;21508;-87
2022/09/24 11:28:08;;;;;;;4.22;2.08;;;;;;;18.59;64.59;100419.02;1701956;82;21528;-84
2022/09/24 11:30:55;;;;;;;5.05;2.20;;;;;;;18.61;63.51;100415.30;1717766;82;21883;-86
2022/09/24 11:33:57;;;;;;;3.27;2.15;;;;;;;18.61;63.80;100416.63;1721787;82;21082;-87
2022/09/24 11:37:01;;;;;;;3.00;2.33;;;;;;;18.57;63.58;100416.49;1700552;82;21043;-84
2022/09/24 11:39:53;;;;;;;4.10;2.35;;;;;;;18.47;63.18;100414.95;1696379;83;21032;-90
2022/09/24 11:43:05;;;;;;;2.50;2.10;;;;;;;18.35;62.76;100413.16;1686060;83;21509;-92
2022/09/24 11:45:59;;;;;;;2.22;1.90;;;;;;;18.22;62.68;100413.14;1697179;83;21117;-88
2022/09/24 11:48:44;;;;;;;2.77;1.72;;;;;;;18.13;62.32;100413.78;1697096;81;21000;-88
2022/09/24 11:51:35;;;;;;;3.75;1.60;;;;;;;18.05;62.10;100416.95;1696484;83;21079;-87
2022/09/24 11:54:26;;;;;;;2.70;1.95;;;;;;;18.03;61.85;100410.89;1697534;83;21498;-89
2022/09/24 11:57:01;;;;;;;1.72;1.50;;;;;;;18.06;61.82;100404.53;1697130;81;21079;-87
2022/09/24 12:00:04;;;;;;;2.20;1.70;;;;;;;18.14;61.81;100408.00;1696009;81;21486;-86
2022/09/24 12:02:55;;;;;;;3.55;1.80;;;;;;;18.18;61.44;100398.86;1721294;81;21075;-91
2022/09/24 12:05:46;;;;;;;4.05;1.80;;;;;;;18.33;61.27;100396.48;1726323;82;21011;-83